sensor_id;sensor_type;location;lat;lon;timestamp;pressure;altitude;pressure_sealevel;temperature;humidity
42003;BME280;27693;50.506;30.832;2023-04-02T00:06:36;98600.53;;;9.38;100.00
42003;BME280;27693;50.506;30.832;2023-04-02T00:07:43;98599.58;;;9.25;100.00
42003;BME280;27693;50.506;30.832;2023-04-02T00:08:47;98599.58;;;9.25;100.00
42003;BME280;27693;50.506;30.832;2023-04-02T00:09:50;98594.86;;;9.32;100.00
42003;BME280;27693;50.506;30.832;2023-04-02T00:10:59;98594.12;;;9.44;100.00
42003;BME280;27693;50.506;30.832;2023-04-02T00:12:11;98598.13;;;9.50;100.00
42003;BME280;27693;50.506;30.832;2023-04-02T00:13:29;98601.11;;;9.58;100.00
42003;BME280;27693;50.506;30.832;2023-04-02T00:14:33;98594.24;;;9.57;99.91
42003;BME280;27693;50.506;30.832;2023-04-02T00:15:40;98593.95;;;9.47;99.63
42003;BME280;27693;50.506;30.832;2023-04-02T00:16:44;98595.09;;;9.57;99.67
42003;BME280;27693;50.506;30.832;2023-04-02T00:17:46;98606.69;;;9.66;99.37
42003;BME280;27693;50.506;30.832;2023-04-02T00:18:51;98602.52;;;9.78;99.43
42003;BME280;27693;50.506;30.832;2023-04-02T00:19:59;98599.17;;;9.76;98.97
42003;BME280;27693;50.506;30.832;2023-04-02T00:21:31;98597.50;;;9.75;98.90
42003;BME280;27693;50.506;30.832;2023-04-02T00:22:24;98609.28;;;9.66;98.37
42003;BME280;27693;50.506;30.832;2023-04-02T00:23:27;98604.91;;;9.67;98.40
42003;BME280;27693;50.506;30.832;2023-04-02T00:24:31;98600.91;;;9.61;98.36
42003;BME280;27693;50.506;30.832;2023-04-02T00:25:38;98604.26;;;9.63;98.23
42003;BME280;27693;50.506;30.832;2023-04-02T00:26:44;98600.63;;;9.51;98.25
42003;BME280;27693;50.506;30.832;2023-04-02T00:27:48;98607.69;;;9.49;98.55
42003;BME280;27693;50.506;30.832;2023-04-02T00:28:53;98610.02;;;9.54;98.49
42003;BME280;27693;50.506;30.832;2023-04-02T00:29:57;98606.84;;;9.49;98.65
42003;BME280;27693;50.506;30.832;2023-04-02T00:31:00;98609.05;;;9.40;98.80
42003;BME280;27693;50.506;30.832;2023-04-02T00:32:03;98604.70;;;9.41;98.95
42003;BME280;27693;50.506;30.832;2023-04-02T00:33:10;98601.09;;;9.43;99.05
42003;BME280;27693;50.506;30.832;2023-04-02T00:34:32;98602.02;;;9.42;99.13
42003;BME280;27693;50.506;30.832;2023-04-02T00:35:37;98602.94;;;9.41;99.17
42003;BME280;27693;50.506;30.832;2023-04-02T00:36:42;98603.12;;;9.38;99.21
42003;BME280;27693;50.506;30.832;2023-04-02T00:37:45;98602.20;;;9.39;99.43
42003;BME280;27693;50.506;30.832;2023-04-02T00:38:49;98600.83;;;9.48;99.46
42003;BME280;27693;50.506;30.832;2023-04-02T00:41:07;98608.43;;;9.66;99.27
42003;BME280;27693;50.506;30.832;2023-04-02T00:42:11;98607.98;;;9.59;99.01
42003;BME280;27693;50.506;30.832;2023-04-02T00:43:14;98606.47;;;9.55;98.77
42003;BME280;27693;50.506;30.832;2023-04-02T00:44:17;98605.48;;;9.57;98.50
42003;BME280;27693;50.506;30.832;2023-04-02T00:45:27;98601.28;;;9.55;98.43
42003;BME280;27693;50.506;30.832;2023-04-02T00:46:38;98601.77;;;9.62;98.36
42003;BME280;27693;50.506;30.832;2023-04-02T00:47:38;98602.03;;;9.57;98.15
42003;BME280;27693;50.506;30.832;2023-04-02T00:48:45;98599.80;;;9.51;98.25
42003;BME280;27693;50.506;30.832;2023-04-02T00:49:50;98603.69;;;9.43;98.36
42003;BME280;27693;50.506;30.832;2023-04-02T00:50:54;98602.86;;;9.43;98.61
42003;BME280;27693;50.506;30.832;2023-04-02T00:52:00;98602.86;;;9.43;98.97
42003;BME280;27693;50.506;30.832;2023-04-02T00:53:15;98598.98;;;9.50;98.97
42003;BME280;27693;50.506;30.832;2023-04-02T00:54:17;98608.90;;;9.58;98.81
42003;BME280;27693;50.506;30.832;2023-04-02T00:55:41;98608.36;;;9.67;98.72
42003;BME280;27693;50.506;30.832;2023-04-02T00:56:49;98600.84;;;9.63;98.37
42003;BME280;27693;50.506;30.832;2023-04-02T00:57:49;98606.75;;;9.65;98.28
42003;BME280;27693;50.506;30.832;2023-04-02T00:58:54;98604.26;;;9.63;98.08
42003;BME280;27693;50.506;30.832;2023-04-02T01:00:20;98613.70;;;9.50;98.00
42003;BME280;27693;50.506;30.832;2023-04-02T01:01:26;98609.63;;;9.46;98.42
42003;BME280;27693;50.506;30.832;2023-04-02T01:02:31;98611.11;;;9.50;98.53
42003;BME280;27693;50.506;30.832;2023-04-02T01:03:35;98610.02;;;9.54;98.47
42003;BME280;27693;50.506;30.832;2023-04-02T01:04:38;98611.66;;;9.55;98.47
42003;BME280;27693;50.506;30.832;2023-04-02T01:05:47;98602.95;;;9.56;98.16
42003;BME280;27693;50.506;30.832;2023-04-02T01:06:47;98602.95;;;9.56;98.16
42003;BME280;27693;50.506;30.832;2023-04-02T01:08:04;98617.61;;;9.57;98.10
42003;BME280;27693;50.506;30.832;2023-04-02T01:09:14;98612.15;;;9.62;98.12
42003;BME280;27693;50.506;30.832;2023-04-02T01:10:31;98616.13;;;9.53;98.05
42003;BME280;27693;50.506;30.832;2023-04-02T01:13:21;98613.55;;;9.67;97.94
42003;BME280;27693;50.506;30.832;2023-04-02T01:15:44;98615.78;;;9.73;97.24
42003;BME280;27693;50.506;30.832;2023-04-02T01:24:56;98612.44;;;9.86;97.60
42003;BME280;27693;50.506;30.832;2023-04-02T01:26:08;98625.80;;;9.80;96.99
42003;BME280;27693;50.506;30.832;2023-04-02T01:27:15;98619.95;;;9.76;96.88
42003;BME280;27693;50.506;30.832;2023-04-02T01:29:45;98629.87;;;9.98;96.99
42003;BME280;27693;50.506;30.832;2023-04-02T01:30:53;98619.38;;;9.85;96.27
42003;BME280;27693;50.506;30.832;2023-04-02T01:32:03;98621.53;;;9.93;96.15
42003;BME280;27693;50.506;30.832;2023-04-02T01:33:06;98627.38;;;9.97;95.86
42003;BME280;27693;50.506;30.832;2023-04-02T01:34:12;98626.90;;;9.90;95.61
42003;BME280;27693;50.506;30.832;2023-04-02T01:35:14;98634.80;;;9.88;95.63
42003;BME280;27693;50.506;30.832;2023-04-02T01:38:56;98620.30;;;9.99;95.22
42003;BME280;27693;50.506;30.832;2023-04-02T01:41:47;98624.30;;;10.04;95.42
42003;BME280;27693;50.506;30.832;2023-04-02T01:45:18;98622.33;;;10.22;94.81
42003;BME280;27693;50.506;30.832;2023-04-02T01:46:29;98621.14;;;10.14;94.30
42003;BME280;27693;50.506;30.832;2023-04-02T01:47:32;98623.54;;;10.17;94.32
42003;BME280;27693;50.506;30.832;2023-04-02T01:48:35;98620.02;;;10.18;94.18
42003;BME280;27693;50.506;30.832;2023-04-02T01:49:41;98627.09;;;10.16;93.90
42003;BME280;27693;50.506;30.832;2023-04-02T01:50:47;98621.42;;;10.09;93.79
42003;BME280;27693;50.506;30.832;2023-04-02T01:51:53;98629.49;;;10.04;94.05
42003;BME280;27693;50.506;30.832;2023-04-02T01:53:00;98627.44;;;10.10;94.17
42003;BME280;27693;50.506;30.832;2023-04-02T01:54:04;98629.32;;;10.07;94.26
42003;BME280;27693;50.506;30.832;2023-04-02T01:55:10;98627.09;;;10.16;94.40
42003;BME280;27693;50.506;30.832;2023-04-02T01:56:16;98625.16;;;10.05;94.32
42003;BME280;27693;50.506;30.832;2023-04-02T01:57:19;98626.98;;;10.17;94.37
42003;BME280;27693;50.506;30.832;2023-04-02T01:58:24;98631.44;;;10.15;94.17
42003;BME280;27693;50.506;30.832;2023-04-02T01:59:29;98622.45;;;9.92;94.38
42003;BME280;27693;50.506;30.832;2023-04-02T02:00:42;98625.15;;;9.76;94.84
42003;BME280;27693;50.506;30.832;2023-04-02T02:02:55;98625.95;;;9.62;96.18
42003;BME280;27693;50.506;30.832;2023-04-02T02:03:58;98628.02;;;9.71;96.32
42003;BME280;27693;50.506;30.832;2023-04-02T02:05:03;98620.61;;;9.80;96.46
42003;BME280;27693;50.506;30.832;2023-04-02T02:06:15;98623.48;;;9.89;96.46
42003;BME280;27693;50.506;30.832;2023-04-02T02:07:16;98618.17;;;9.77;96.16
42003;BME280;27693;50.506;30.832;2023-04-02T02:09:36;98626.18;;;9.88;96.11
42003;BME280;27693;50.506;30.832;2023-04-02T02:10:40;98623.75;;;9.85;95.93
42003;BME280;27693;50.506;30.832;2023-04-02T02:11:42;98626.45;;;9.83;95.94
42003;BME280;27693;50.506;30.832;2023-04-02T02:12:45;98614.92;;;9.73;96.06
42003;BME280;27693;50.506;30.832;2023-04-02T02:13:55;98628.55;;;9.62;96.63
42003;BME280;27693;50.506;30.832;2023-04-02T02:14:58;98623.47;;;9.75;97.00
42003;BME280;27693;50.506;30.832;2023-04-02T02:16:02;98623.19;;;9.65;96.68
42003;BME280;27693;50.506;30.832;2023-04-02T02:17:06;98623.83;;;9.54;97.00
42003;BME280;27693;50.506;30.832;2023-04-02T02:18:14;98626.12;;;9.45;97.64
42003;BME280;27693;50.506;30.832;2023-04-02T02:19:47;98622.05;;;9.55;97.90
42003;BME280;27693;50.506;30.832;2023-04-02T02:20:47;98626.59;;;9.51;97.78
42003;BME280;27693;50.506;30.832;2023-04-02T02:22:09;98626.59;;;9.51;97.89
42003;BME280;27693;50.506;30.832;2023-04-02T02:23:12;98623.56;;;9.59;98.02
42003;BME280;27693;50.506;30.832;2023-04-02T02:25:27;98627.47;;;9.81;97.90
42003;BME280;27693;50.506;30.832;2023-04-02T02:26:32;98628.19;;;9.68;97.35
42003;BME280;27693;50.506;30.832;2023-04-02T02:28:51;98620.20;;;9.57;97.42
42003;BME280;27693;50.506;30.832;2023-04-02T02:29:58;98627.08;;;9.58;97.63
42003;BME280;27693;50.506;30.832;2023-04-02T02:31:04;98625.95;;;9.62;97.71
42003;BME280;27693;50.506;30.832;2023-04-02T02:32:09;98626.82;;;9.77;97.76
42003;BME280;27693;50.506;30.832;2023-04-02T02:33:29;98623.17;;;9.51;97.52
42003;BME280;27693;50.506;30.832;2023-04-02T02:34:40;98620.28;;;9.41;98.02
42003;BME280;27693;50.506;30.832;2023-04-02T02:37:25;98624.94;;;9.50;98.68
42003;BME280;27693;50.506;30.832;2023-04-02T02:39:58;98616.32;;;9.64;98.37
42003;BME280;27693;50.506;30.832;2023-04-02T02:42:39;98621.13;;;9.56;97.93
42003;BME280;27693;50.506;30.832;2023-04-02T02:45:12;98624.86;;;9.66;98.20
42003;BME280;27693;50.506;30.832;2023-04-02T02:46:16;98627.19;;;9.71;97.98
42003;BME280;27693;50.506;30.832;2023-04-02T02:47:24;98621.06;;;9.57;97.63
42003;BME280;27693;50.506;30.832;2023-04-02T02:48:33;98627.90;;;9.58;97.94
42003;BME280;27693;50.506;30.832;2023-04-02T02:49:36;98630.23;;;9.63;98.08
42003;BME280;27693;50.506;30.832;2023-04-02T02:50:41;98627.64;;;9.78;98.32
42003;BME280;27693;50.506;30.832;2023-04-02T02:51:51;98631.81;;;9.80;98.10
42003;BME280;27693;50.506;30.832;2023-04-02T02:52:57;98630.42;;;9.89;98.10
42003;BME280;27693;50.506;30.832;2023-04-02T02:54:02;98630.42;;;9.89;97.50
42003;BME280;27693;50.506;30.832;2023-04-02T02:55:16;98625.22;;;9.89;97.20
42003;BME280;27693;50.506;30.832;2023-04-02T02:56:25;98629.33;;;9.93;97.13
42003;BME280;27693;50.506;30.832;2023-04-02T02:57:32;98631.00;;;9.94;96.73
42003;BME280;27693;50.506;30.832;2023-04-02T02:58:35;98621.33;;;9.82;96.48
42003;BME280;27693;50.506;30.832;2023-04-02T02:59:41;98629.79;;;9.71;96.82
42003;BME280;27693;50.506;30.832;2023-04-02T03:00:44;98628.20;;;9.83;97.04
42003;BME280;27693;50.506;30.832;2023-04-02T03:01:48;98633.59;;;9.94;97.08
42003;BME280;27693;50.506;30.832;2023-04-02T03:02:53;98628.78;;;9.88;96.80
42003;BME280;27693;50.506;30.832;2023-04-02T03:03:58;98629.97;;;9.82;96.42
42003;BME280;27693;50.506;30.832;2023-04-02T03:05:03;98630.78;;;9.68;96.51
42003;BME280;27693;50.506;30.832;2023-04-02T03:06:09;98628.00;;;9.57;96.92
42003;BME280;27693;50.506;30.832;2023-04-02T03:07:15;98639.52;;;9.67;97.28
42003;BME280;27693;50.506;30.832;2023-04-02T03:08:27;98635.05;;;9.69;97.35
42003;BME280;27693;50.506;30.832;2023-04-02T03:13:51;98641.17;;;9.54;97.30
42003;BME280;27693;50.506;30.832;2023-04-02T03:15:11;98636.25;;;9.49;97.64
42003;BME280;27693;50.506;30.832;2023-04-02T03:17:40;98641.17;;;9.54;97.91
42003;BME280;27693;50.506;30.832;2023-04-02T03:21:46;98644.47;;;9.41;98.17
42003;BME280;27693;50.506;30.832;2023-04-02T03:23:03;98640.59;;;9.49;98.20
42003;BME280;27693;50.506;30.832;2023-04-02T03:26:38;98643.97;;;9.65;97.96
42003;BME280;27693;50.506;30.832;2023-04-02T03:27:42;98649.52;;;9.59;97.76
42003;BME280;27693;50.506;30.832;2023-04-02T03:31:37;98646.90;;;9.45;97.37
42003;BME280;27693;50.506;30.832;2023-04-02T03:32:41;98652.75;;;9.48;97.51
42003;BME280;27693;50.506;30.832;2023-04-02T03:33:49;98652.25;;;9.41;97.70
42003;BME280;27693;50.506;30.832;2023-04-02T03:34:56;98646.53;;;9.51;97.79
42003;BME280;27693;50.506;30.832;2023-04-02T03:38:28;98650.25;;;9.61;97.45
42003;BME280;27693;50.506;30.832;2023-04-02T03:39:43;98651.20;;;9.60;97.29
42003;BME280;27693;50.506;30.832;2023-04-02T03:41:18;98653.80;;;9.60;97.12
42003;BME280;27693;50.506;30.832;2023-04-02T03:42:24;98656.03;;;9.66;97.09
42003;BME280;27693;50.506;30.832;2023-04-02T03:45:04;98657.22;;;9.61;96.89
42003;BME280;27693;50.506;30.832;2023-04-02T03:46:33;98659.42;;;9.52;96.87
42003;BME280;27693;50.506;30.832;2023-04-02T03:47:42;98664.71;;;9.51;97.13
42003;BME280;27693;50.506;30.832;2023-04-02T03:48:48;98657.64;;;9.38;97.10
42003;BME280;27693;50.506;30.832;2023-04-02T03:50:00;98655.61;;;9.43;97.30
42003;BME280;27693;50.506;30.832;2023-04-02T03:51:13;98660.80;;;9.43;97.45
42003;BME280;27693;50.506;30.832;2023-04-02T03:52:24;98659.62;;;9.49;97.53
42003;BME280;27693;50.506;30.832;2023-04-02T03:53:28;98666.34;;;9.37;97.44
42003;BME280;27693;50.506;30.832;2023-04-02T03:54:33;98662.38;;;9.46;97.54
42003;BME280;27693;50.506;30.832;2023-04-02T03:55:36;98669.51;;;9.42;97.60
42003;BME280;27693;50.506;30.832;2023-04-02T03:56:41;98669.34;;;9.46;97.63
42003;BME280;27693;50.506;30.832;2023-04-02T03:59:06;98670.62;;;9.38;97.35
42003;BME280;27693;50.506;30.832;2023-04-02T04:00:23;98669.34;;;9.46;97.42
42003;BME280;27693;50.506;30.832;2023-04-02T04:01:34;98674.17;;;9.52;97.40
42003;BME280;27693;50.506;30.832;2023-04-02T04:02:50;98667.47;;;9.48;97.22
42003;BME280;27693;50.506;30.832;2023-04-02T04:03:56;98670.20;;;9.61;97.24
42003;BME280;27693;50.506;30.832;2023-04-02T04:05:02;98673.09;;;9.70;97.04
42003;BME280;27693;50.506;30.832;2023-04-02T04:06:25;98677.55;;;9.83;97.00
42003;BME280;27693;50.506;30.832;2023-04-02T04:07:41;98673.06;;;9.56;96.34
42003;BME280;27693;50.506;30.832;2023-04-02T04:08:52;98674.60;;;9.44;96.39
42003;BME280;27693;50.506;30.832;2023-04-02T04:09:54;98673.32;;;9.51;96.69
42003;BME280;27693;50.506;30.832;2023-04-02T04:11:00;98675.75;;;9.54;96.92
42003;BME280;27693;50.506;30.832;2023-04-02T04:12:15;98685.63;;;9.33;96.62
42003;BME280;27693;50.506;30.832;2023-04-02T04:13:16;98679.33;;;9.37;97.00
42003;BME280;27693;50.506;30.832;2023-04-02T04:14:31;98682.38;;;9.14;97.17
42003;BME280;27693;50.506;30.832;2023-04-02T04:15:41;98682.80;;;9.22;97.84
42003;BME280;27693;50.506;30.832;2023-04-02T04:16:49;98678.92;;;9.29;97.83
42003;BME280;27693;50.506;30.832;2023-04-02T04:19:29;98675.36;;;9.16;98.06
42003;BME280;27693;50.506;30.832;2023-04-02T04:21:49;98685.95;;;9.27;98.05
42003;BME280;27693;50.506;30.832;2023-04-02T04:23:10;98688.84;;;9.22;98.15
42003;BME280;27693;50.506;30.832;2023-04-02T04:24:19;98689.50;;;9.26;98.20
42003;BME280;27693;50.506;30.832;2023-04-02T04:25:28;98692.45;;;9.20;98.20
42003;BME280;27693;50.506;30.832;2023-04-02T04:26:44;98686.19;;;9.08;98.38
42003;BME280;27693;50.506;30.832;2023-04-02T04:31:09;98692.47;;;9.34;98.70
42003;BME280;27693;50.506;30.832;2023-04-02T04:32:15;98694.50;;;9.29;98.74
42003;BME280;27693;50.506;30.832;2023-04-02T04:34:37;98695.36;;;9.30;98.23
42003;BME280;27693;50.506;30.832;2023-04-02T04:35:36;98696.97;;;9.16;98.58
42003;BME280;27693;50.506;30.832;2023-04-02T04:36:51;98695.67;;;9.23;98.77
42003;BME280;27693;50.506;30.832;2023-04-02T04:38:20;98703.96;;;9.30;98.66
42003;BME280;27693;50.506;30.832;2023-04-02T04:39:39;98699.44;;;9.34;98.33
42003;BME280;27693;50.506;30.832;2023-04-02T04:40:48;98698.98;;;9.41;98.13
42003;BME280;27693;50.506;30.832;2023-04-02T04:41:59;98690.27;;;9.42;98.06
42003;BME280;27693;50.506;30.832;2023-04-02T04:43:06;98698.93;;;9.27;98.15
42003;BME280;27693;50.506;30.832;2023-04-02T04:44:21;98698.32;;;9.38;98.36
42003;BME280;27693;50.506;30.832;2023-04-02T04:45:40;98693.67;;;9.29;98.27
42003;BME280;27693;50.506;30.832;2023-04-02T04:49:26;98692.61;;;9.47;98.48
42003;BME280;27693;50.506;30.832;2023-04-02T04:50:45;98701.87;;;9.37;98.18
42003;BME280;27693;50.506;30.832;2023-04-02T04:53:11;98698.16;;;9.41;98.59
42003;BME280;27693;50.506;30.832;2023-04-02T04:54:12;98705.03;;;9.42;98.78
42003;BME280;27693;50.506;30.832;2023-04-02T04:55:27;98702.50;;;9.40;98.53
42003;BME280;27693;50.506;30.832;2023-04-02T04:56:32;98692.70;;;9.46;98.49
42003;BME280;27693;50.506;30.832;2023-04-02T04:57:41;98704.84;;;9.45;97.92
42003;BME280;27693;50.506;30.832;2023-04-02T04:58:52;98703.66;;;9.51;97.88
42003;BME280;27693;50.506;30.832;2023-04-02T05:02:31;98702.90;;;9.49;97.58
42003;BME280;27693;50.506;30.832;2023-04-02T05:04:49;98709.15;;;9.61;97.18
42003;BME280;27693;50.506;30.832;2023-04-02T05:05:53;98707.88;;;9.37;97.19
42003;BME280;27693;50.506;30.832;2023-04-02T05:07:11;98708.05;;;9.34;97.83
42003;BME280;27693;50.506;30.832;2023-04-02T05:08:18;98716.12;;;9.30;98.02
42003;BME280;27693;50.506;30.832;2023-04-02T05:09:26;98716.78;;;9.33;98.33
42003;BME280;27693;50.506;30.832;2023-04-02T05:11:44;98704.41;;;9.22;98.26
42003;BME280;27693;50.506;30.832;2023-04-02T05:14:07;98712.13;;;9.08;98.97
42003;BME280;27693;50.506;30.832;2023-04-02T05:16:35;98717.48;;;9.05;99.49
42003;BME280;27693;50.506;30.832;2023-04-02T05:18:49;98716.12;;;9.14;100.00
42003;BME280;27693;50.506;30.832;2023-04-02T05:19:59;98712.86;;;9.26;100.00
42003;BME280;27693;50.506;30.832;2023-04-02T05:23:45;98709.97;;;9.61;100.00
42003;BME280;27693;50.506;30.832;2023-04-02T05:26:20;98718.52;;;9.63;98.44
42003;BME280;27693;50.506;30.832;2023-04-02T05:28:49;98703.44;;;9.70;97.70
42003;BME280;27693;50.506;30.832;2023-04-02T05:29:55;98718.52;;;9.63;97.40
42003;BME280;27693;50.506;30.832;2023-04-02T05:31:06;98719.84;;;9.70;97.51
42003;BME280;27693;50.506;30.832;2023-04-02T05:32:20;98715.79;;;9.81;97.53
42003;BME280;27693;50.506;30.832;2023-04-02T05:33:28;98720.36;;;9.61;96.98
42003;BME280;27693;50.506;30.832;2023-04-02T05:34:36;98717.75;;;9.47;97.31
42003;BME280;27693;50.506;30.832;2023-04-02T05:35:42;98717.44;;;9.37;97.47
42003;BME280;27693;50.506;30.832;2023-04-02T05:36:46;98725.14;;;9.38;98.03
42003;BME280;27693;50.506;30.832;2023-04-02T05:37:49;98725.91;;;9.55;98.26
42003;BME280;27693;50.506;30.832;2023-04-02T05:38:53;98723.31;;;9.55;98.03
42003;BME280;27693;50.506;30.832;2023-04-02T05:40:04;98730.42;;;9.67;98.06
42003;BME280;27693;50.506;30.832;2023-04-02T05:41:55;98731.95;;;9.55;97.26
42003;BME280;27693;50.506;30.832;2023-04-02T05:42:35;98725.44;;;9.48;97.31
42003;BME280;27693;50.506;30.832;2023-04-02T05:43:46;98721.21;;;9.62;97.47
42003;BME280;27693;50.506;30.832;2023-04-02T05:45:28;98720.36;;;9.61;97.24
42003;BME280;27693;50.506;30.832;2023-04-02T05:46:39;98718.67;;;9.46;97.19
42003;BME280;27693;50.506;30.832;2023-04-02T05:47:41;98722.75;;;9.50;97.30
42003;BME280;27693;50.506;30.832;2023-04-02T05:48:50;98725.75;;;9.58;97.59
42003;BME280;27693;50.506;30.832;2023-04-02T05:51:23;98736.73;;;9.78;97.06
42003;BME280;27693;50.506;30.832;2023-04-02T05:52:29;98730.06;;;9.73;96.49
42003;BME280;27693;50.506;30.832;2023-04-02T05:53:35;98730.79;;;9.75;96.15
42003;BME280;27693;50.506;30.832;2023-04-02T05:54:44;98723.48;;;9.82;96.11
42003;BME280;27693;50.506;30.832;2023-04-02T05:57:06;98727.00;;;9.81;95.79
42003;BME280;27693;50.506;30.832;2023-04-02T05:59:42;98727.30;;;9.91;95.25
42003;BME280;27693;50.506;30.832;2023-04-02T06:02:11;98728.20;;;9.45;96.00
42003;BME280;27693;50.506;30.832;2023-04-02T06:06:00;98732.92;;;9.69;96.13
42003;BME280;27693;50.506;30.832;2023-04-02T06:07:12;98733.44;;;9.59;96.12
42003;BME280;27693;50.506;30.832;2023-04-02T06:08:18;98737.97;;;9.56;95.93
42003;BME280;27693;50.506;30.832;2023-04-02T06:10:36;98731.81;;;9.42;96.73
42003;BME280;27693;50.506;30.832;2023-04-02T06:11:43;98732.00;;;9.39;97.00
42003;BME280;27693;50.506;30.832;2023-04-02T06:12:55;98739.50;;;9.44;97.06
42003;BME280;27693;50.506;30.832;2023-04-02T06:14:03;98734.31;;;9.44;96.98
42003;BME280;27693;50.506;30.832;2023-04-02T06:15:12;98740.50;;;9.57;97.07
42003;BME280;27693;50.506;30.832;2023-04-02T06:16:13;98746.16;;;9.64;96.84
42003;BME280;27693;50.506;30.832;2023-04-02T06:17:18;98741.59;;;9.53;96.24
42003;BME280;27693;50.506;30.832;2023-04-02T06:18:26;98728.55;;;9.39;96.58
42003;BME280;27693;50.506;30.832;2023-04-02T06:19:34;98740.00;;;9.51;96.75
42003;BME280;27693;50.506;30.832;2023-04-02T06:20:37;98740.88;;;9.66;96.83
42003;BME280;27693;50.506;30.832;2023-04-02T06:21:45;98733.02;;;9.67;96.27
42003;BME280;27693;50.506;30.832;2023-04-02T06:22:51;98741.38;;;9.72;96.16
42003;BME280;27693;50.506;30.832;2023-04-02T06:23:57;98741.02;;;9.79;95.76
42003;BME280;27693;50.506;30.832;2023-04-02T06:26:26;98750.44;;;9.65;95.17
42003;BME280;27693;50.506;30.832;2023-04-02T06:27:32;98751.56;;;9.75;95.39
42003;BME280;27693;50.506;30.832;2023-04-02T06:28:39;98751.36;;;9.64;95.31
42003;BME280;27693;50.506;30.832;2023-04-02T06:29:43;98752.02;;;9.68;95.70
42003;BME280;27693;50.506;30.832;2023-04-02T06:30:51;98748.36;;;9.56;95.75
42003;BME280;27693;50.506;30.832;2023-04-02T06:31:57;98751.36;;;9.64;96.00
42003;BME280;27693;50.506;30.832;2023-04-02T06:33:02;98762.31;;;9.69;95.66
42003;BME280;27693;50.506;30.832;2023-04-02T06:34:09;98750.84;;;9.73;95.59
42003;BME280;27693;50.506;30.832;2023-04-02T06:35:14;98758.70;;;9.72;95.71
42003;BME280;27693;50.506;30.832;2023-04-02T06:36:20;98753.50;;;9.72;95.71
42003;BME280;27693;50.506;30.832;2023-04-02T06:37:32;98755.89;;;9.61;95.70
42003;BME280;27693;50.506;30.832;2023-04-02T06:38:40;98759.91;;;9.66;95.76
42003;BME280;27693;50.506;30.832;2023-04-02T06:39:45;98753.20;;;9.62;95.94
42003;BME280;27693;50.506;30.832;2023-04-02T06:42:34;98752.52;;;9.74;95.73
42003;BME280;27693;50.506;30.832;2023-04-02T06:44:00;98747.58;;;9.70;95.74
42003;BME280;27693;50.506;30.832;2023-04-02T06:45:01;98754.75;;;9.81;95.62
42003;BME280;27693;50.506;30.832;2023-04-02T06:46:33;98764.03;;;9.85;95.47
42003;BME280;27693;50.506;30.832;2023-04-02T06:47:43;98760.02;;;9.79;94.89
42003;BME280;27693;50.506;30.832;2023-04-02T06:48:56;98754.16;;;9.75;94.88
42003;BME280;27693;50.506;30.832;2023-04-02T06:50:15;98760.38;;;9.73;94.86
42003;BME280;27693;50.506;30.832;2023-04-02T06:51:20;98763.89;;;9.72;94.89
42003;BME280;27693;50.506;30.832;2023-04-02T06:52:29;98760.67;;;9.83;94.96
42003;BME280;27693;50.506;30.832;2023-04-02T06:53:42;98760.88;;;9.80;94.60
42003;BME280;27693;50.506;30.832;2023-04-02T06:54:47;98762.15;;;9.72;94.90
42003;BME280;27693;50.506;30.832;2023-04-02T06:57:17;98758.23;;;9.65;95.61
42003;BME280;27693;50.506;30.832;2023-04-02T06:58:21;98759.77;;;9.53;95.26
42003;BME280;27693;50.506;30.832;2023-04-02T06:59:25;98763.59;;;9.62;95.52
42003;BME280;27693;50.506;30.832;2023-04-02T07:00:41;98762.71;;;9.47;95.42
42003;BME280;27693;50.506;30.832;2023-04-02T07:02:58;98768.31;;;9.55;95.77
42003;BME280;27693;50.506;30.832;2023-04-02T07:04:02;98765.62;;;9.57;95.85
42003;BME280;27693;50.506;30.832;2023-04-02T07:05:08;98765.30;;;9.47;95.89
42003;BME280;27693;50.506;30.832;2023-04-02T07:06:16;98771.92;;;9.53;96.08
42003;BME280;27693;50.506;30.832;2023-04-02T07:07:21;98773.50;;;9.55;96.33
42003;BME280;27693;50.506;30.832;2023-04-02T07:08:24;98765.27;;;9.63;96.36
42003;BME280;27693;50.506;30.832;2023-04-02T07:09:27;98771.78;;;9.70;96.31
42003;BME280;27693;50.506;30.832;2023-04-02T07:10:31;98776.45;;;9.80;95.90
42003;BME280;27693;50.506;30.832;2023-04-02T07:11:35;98774.16;;;9.89;95.58
42003;BME280;27693;50.506;30.832;2023-04-02T07:12:39;98769.39;;;9.82;95.03
42003;BME280;27693;50.506;30.832;2023-04-02T07:13:43;98778.30;;;9.78;94.98
42003;BME280;27693;50.506;30.832;2023-04-02T07:14:45;98772.14;;;9.64;95.11
42003;BME280;27693;50.506;30.832;2023-04-02T07:15:51;98775.48;;;9.66;95.40
42003;BME280;27693;50.506;30.832;2023-04-02T07:16:56;98786.61;;;9.68;95.40
42003;BME280;27693;50.506;30.832;2023-04-02T07:17:59;98776.98;;;9.70;95.31
42003;BME280;27693;50.506;30.832;2023-04-02T07:19:02;98777.28;;;9.80;95.22
42003;BME280;27693;50.506;30.832;2023-04-02T07:21:31;98779.78;;;9.82;95.10
42003;BME280;27693;50.506;30.832;2023-04-02T07:22:33;98776.36;;;9.81;94.87
42003;BME280;27693;50.506;30.832;2023-04-02T07:23:37;98780.84;;;9.94;95.15
42003;BME280;27693;50.506;30.832;2023-04-02T07:24:40;98786.27;;;10.05;95.07
42003;BME280;27693;50.506;30.832;2023-04-02T07:25:43;98787.45;;;9.99;94.24
42003;BME280;27693;50.506;30.832;2023-04-02T07:26:46;98785.41;;;10.04;93.94
42003;BME280;27693;50.506;30.832;2023-04-02T07:27:49;98785.11;;;9.95;93.69
42003;BME280;27693;50.506;30.832;2023-04-02T07:28:53;98791.19;;;9.79;93.93
42003;BME280;27693;50.506;30.832;2023-04-02T07:29:56;98788.87;;;9.74;94.42
42003;BME280;27693;50.506;30.832;2023-04-02T07:30:59;98790.17;;;9.82;94.64
42003;BME280;27693;50.506;30.832;2023-04-02T07:32:02;98791.33;;;9.92;94.76
42003;BME280;27693;50.506;30.832;2023-04-02T07:33:04;98792.08;;;9.94;94.61
42003;BME280;27693;50.506;30.832;2023-04-02T07:34:07;98800.90;;;9.91;94.47
42003;BME280;27693;50.506;30.832;2023-04-02T07:35:10;98788.69;;;9.78;94.53
42003;BME280;27693;50.506;30.832;2023-04-02T07:36:15;98796.52;;;9.92;94.95
42003;BME280;27693;50.506;30.832;2023-04-02T07:37:19;98794.13;;;10.03;95.17